sensor_id;sensor_type;location;lat;lon;timestamp;pressure;altitude;pressure_sealevel;temperature;humidity
22031;BME280;11179;52.106;21.024;2024-03-07T00:01:44;101459.47;;;3.03;54.59
22031;BME280;11179;52.106;21.024;2024-03-07T00:04:10;101456.56;;;3.05;54.96
22031;BME280;11179;52.106;21.024;2024-03-07T00:06:35;101457.78;;;3.02;55.13
22031;BME280;11179;52.106;21.024;2024-03-07T00:09:01;101466.94;;;3.01;55.24
22031;BME280;11179;52.106;21.024;2024-03-07T00:11:27;101460.19;;;2.97;55.43
22031;BME280;11179;52.106;21.024;2024-03-07T00:13:53;101467.06;;;2.85;56.17
22031;BME280;11179;52.106;21.024;2024-03-07T00:16:19;101461.31;;;2.80;56.44
22031;BME280;11179;52.106;21.024;2024-03-07T00:18:45;101464.41;;;2.77;56.78
22031;BME280;11179;52.106;21.024;2024-03-07T00:21:11;101461.41;;;2.72;56.70
22031;BME280;11179;52.106;21.024;2024-03-07T00:23:36;101457.66;;;2.73;56.72
22031;BME280;11179;52.106;21.024;2024-03-07T00:26:02;101463.63;;;2.68;57.15
22031;BME280;11179;52.106;21.024;2024-03-07T00:28:28;101451.91;;;2.68;57.07
22031;BME280;11179;52.106;21.024;2024-03-07T00:30:58;101444.53;;;2.61;57.14
22031;BME280;11179;52.106;21.024;2024-03-07T00:33:23;101449.03;;;2.69;56.95
22031;BME280;11179;52.106;21.024;2024-03-07T00:35:49;101451.28;;;2.65;57.08
22031;BME280;11179;52.106;21.024;2024-03-07T00:38:14;101447.91;;;2.63;57.29
22031;BME280;11179;52.106;21.024;2024-03-07T00:40:40;101453.31;;;2.63;57.18
22031;BME280;11179;52.106;21.024;2024-03-07T00:43:05;101450.31;;;2.58;57.28
22031;BME280;11179;52.106;21.024;2024-03-07T00:45:31;101454.38;;;2.54;57.40
22031;BME280;11179;52.106;21.024;2024-03-07T00:47:58;101456.81;;;2.49;57.64
22031;BME280;11179;52.106;21.024;2024-03-07T00:50:24;101450.53;;;2.49;57.75
22031;BME280;11179;52.106;21.024;2024-03-07T00:52:50;101457.09;;;2.54;57.90
22031;BME280;11179;52.106;21.024;2024-03-07T00:55:16;101455.72;;;2.58;57.70
22031;BME280;11179;52.106;21.024;2024-03-07T00:57:41;101456.72;;;2.65;57.76
22031;BME280;11179;52.106;21.024;2024-03-07T01:00:07;101454.81;;;2.66;57.60
22031;BME280;11179;52.106;21.024;2024-03-07T01:02:42;101450.63;;;2.63;57.89
22031;BME280;11179;52.106;21.024;2024-03-07T01:05:09;101454.38;;;2.54;57.86
22031;BME280;11179;52.106;21.024;2024-03-07T01:07:35;101459.44;;;2.57;57.82
22031;BME280;11179;52.106;21.024;2024-03-07T01:10:03;101448.97;;;2.54;57.65
22031;BME280;11179;52.106;21.024;2024-03-07T01:12:31;101457.47;;;2.51;57.69
22031;BME280;11179;52.106;21.024;2024-03-07T01:14:56;101468.50;;;2.50;57.55
22031;BME280;11179;52.106;21.024;2024-03-07T01:17:25;101451.78;;;2.38;57.43
22031;BME280;11179;52.106;21.024;2024-03-07T01:19:51;101456.91;;;2.33;57.57
22031;BME280;11179;52.106;21.024;2024-03-07T01:22:16;101458.94;;;2.31;57.17
22031;BME280;11179;52.106;21.024;2024-03-07T01:24:42;101459.28;;;2.28;57.32
22031;BME280;11179;52.106;21.024;2024-03-07T01:27:07;101461.19;;;2.19;57.21
22031;BME280;11179;52.106;21.024;2024-03-07T01:29:32;101458.66;;;2.18;57.24
22031;BME280;11179;52.106;21.024;2024-03-07T01:31:58;101455.00;;;2.11;56.94
22031;BME280;11179;52.106;21.024;2024-03-07T01:34:23;101454.16;;;2.10;57.09
22031;BME280;11179;52.106;21.024;2024-03-07T01:36:48;101460.03;;;2.14;57.49
22031;BME280;11179;52.106;21.024;2024-03-07T01:39:14;101459.38;;;2.12;56.98
22031;BME280;11179;52.106;21.024;2024-03-07T01:41:39;101455.63;;;2.13;56.74
22031;BME280;11179;52.106;21.024;2024-03-07T01:44:05;101462.28;;;2.10;56.84
22031;BME280;11179;52.106;21.024;2024-03-07T01:46:32;101462.44;;;2.09;57.01
22031;BME280;11179;52.106;21.024;2024-03-07T01:48:58;101464.66;;;2.05;56.90
22031;BME280;11179;52.106;21.024;2024-03-07T01:51:24;101456.00;;;2.10;57.09
22031;BME280;11179;52.106;21.024;2024-03-07T01:53:51;101454.44;;;2.15;57.04
22031;BME280;11179;52.106;21.024;2024-03-07T01:56:18;101455.44;;;2.22;56.71
22031;BME280;11179;52.106;21.024;2024-03-07T01:58:46;101451.22;;;2.20;56.96
22031;BME280;11179;52.106;21.024;2024-03-07T02:01:12;101454.81;;;2.12;56.85
22031;BME280;11179;52.106;21.024;2024-03-07T02:03:39;101447.50;;;2.13;56.91
22031;BME280;11179;52.106;21.024;2024-03-07T02:06:05;101447.72;;;2.11;57.22
22031;BME280;11179;52.106;21.024;2024-03-07T02:08:30;101452.56;;;2.16;56.82
22031;BME280;11179;52.106;21.024;2024-03-07T02:10:57;101451.44;;;2.10;57.09
22031;BME280;11179;52.106;21.024;2024-03-07T02:13:23;101458.03;;;2.08;57.30
22031;BME280;11179;52.106;21.024;2024-03-07T02:15:48;101457.03;;;2.01;57.41
22031;BME280;11179;52.106;21.024;2024-03-07T02:18:14;101463.47;;;2.00;57.18
22031;BME280;11179;52.106;21.024;2024-03-07T02:20:45;101465.84;;;2.03;57.29
22031;BME280;11179;52.106;21.024;2024-03-07T02:23:13;101457.88;;;2.01;57.36
22031;BME280;11179;52.106;21.024;2024-03-07T02:25:40;101459.75;;;2.01;57.47
22031;BME280;11179;52.106;21.024;2024-03-07T02:28:05;101459.94;;;1.99;57.38
22031;BME280;11179;52.106;21.024;2024-03-07T02:30:31;101463.47;;;2.08;57.54
22031;BME280;11179;52.106;21.024;2024-03-07T02:32:59;101468.88;;;2.08;57.41
22031;BME280;11179;52.106;21.024;2024-03-07T02:35:34;101464.66;;;2.05;57.67
22031;BME280;11179;52.106;21.024;2024-03-07T02:38:05;101463.13;;;2.03;57.66
22031;BME280;11179;52.106;21.024;2024-03-07T02:40:31;101466.69;;;2.03;57.68
22031;BME280;11179;52.106;21.024;2024-03-07T02:42:57;101472.94;;;2.04;57.57
22031;BME280;11179;52.106;21.024;2024-03-07T02:45:23;101466.19;;;2.00;57.42
22031;BME280;11179;52.106;21.024;2024-03-07T02:47:49;101471.13;;;1.96;57.69
22031;BME280;11179;52.106;21.024;2024-03-07T02:50:14;101459.09;;;1.99;57.73
22031;BME280;11179;52.106;21.024;2024-03-07T02:52:40;101466.69;;;2.03;57.60
22031;BME280;11179;52.106;21.024;2024-03-07T02:55:06;101464.88;;;1.96;57.70
22031;BME280;11179;52.106;21.024;2024-03-07T02:57:35;101475.00;;;2.02;57.82
22031;BME280;11179;52.106;21.024;2024-03-07T03:00:00;101463.13;;;2.03;57.57
22031;BME280;11179;52.106;21.024;2024-03-07T03:02:26;101462.47;;;2.01;57.44
22031;BME280;11179;52.106;21.024;2024-03-07T03:04:51;101464.88;;;1.96;57.77
22031;BME280;11179;52.106;21.024;2024-03-07T03:07:16;101458.09;;;1.91;57.58
22031;BME280;11179;52.106;21.024;2024-03-07T03:09:42;101457.09;;;1.92;57.72
22031;BME280;11179;52.106;21.024;2024-03-07T03:12:12;101454.88;;;1.96;57.73
22031;BME280;11179;52.106;21.024;2024-03-07T03:14:37;101466.06;;;1.93;57.78
22031;BME280;11179;52.106;21.024;2024-03-07T03:17:02;101462.16;;;1.87;57.81
22031;BME280;11179;52.106;21.024;2024-03-07T03:19:28;101462.84;;;1.89;57.86
22031;BME280;11179;52.106;21.024;2024-03-07T03:21:53;101467.97;;;1.84;57.78
22031;BME280;11179;52.106;21.024;2024-03-07T03:24:21;101467.97;;;1.84;58.04
22031;BME280;11179;52.106;21.024;2024-03-07T03:26:46;101457.84;;;1.70;58.08
22031;BME280;11179;52.106;21.024;2024-03-07T03:29:12;101466.28;;;1.83;58.09
22031;BME280;11179;52.106;21.024;2024-03-07T03:31:39;101480.13;;;1.88;58.20
22031;BME280;11179;52.106;21.024;2024-03-07T03:34:04;101462.38;;;1.78;58.22
22031;BME280;11179;52.106;21.024;2024-03-07T03:36:30;101474.41;;;1.83;58.21
22031;BME280;11179;52.106;21.024;2024-03-07T03:38:55;101482.84;;;1.80;57.92
22031;BME280;11179;52.106;21.024;2024-03-07T03:41:22;101480.16;;;1.80;58.23
22031;BME280;11179;52.106;21.024;2024-03-07T03:43:47;101486.41;;;1.81;58.19
22031;BME280;11179;52.106;21.024;2024-03-07T03:46:13;101479.81;;;1.75;58.10
22031;BME280;11179;52.106;21.024;2024-03-07T03:48:41;101478.00;;;1.68;58.06
22031;BME280;11179;52.106;21.024;2024-03-07T03:51:10;101480.88;;;1.66;58.53
22031;BME280;11179;52.106;21.024;2024-03-07T03:53:38;101482.72;;;1.66;58.41
22031;BME280;11179;52.106;21.024;2024-03-07T03:56:04;101479.03;;;1.58;58.34
22031;BME280;11179;52.106;21.024;2024-03-07T03:58:32;101472.09;;;1.48;58.33
22031;BME280;11179;52.106;21.024;2024-03-07T04:00:59;101478.56;;;1.39;58.42
22031;BME280;11179;52.106;21.024;2024-03-07T04:03:25;101476.72;;;1.31;58.43
22031;BME280;11179;52.106;21.024;2024-03-07T04:05:50;101477.88;;;1.20;58.59
22031;BME280;11179;52.106;21.024;2024-03-07T04:08:16;101483.66;;;1.17;58.68
22031;BME280;11179;52.106;21.024;2024-03-07T04:10:41;101479.91;;;1.10;58.79
22031;BME280;11179;52.106;21.024;2024-03-07T04:13:06;101476.22;;;1.03;58.77
22031;BME280;11179;52.106;21.024;2024-03-07T04:15:33;101468.09;;;0.95;58.97
22031;BME280;11179;52.106;21.024;2024-03-07T04:17:58;101481.63;;;0.87;58.79
22031;BME280;11179;52.106;21.024;2024-03-07T04:20:24;101476.22;;;0.79;59.11
22031;BME280;11179;52.106;21.024;2024-03-07T04:22:50;101481.09;;;0.75;59.05
22031;BME280;11179;52.106;21.024;2024-03-07T04:25:16;101475.50;;;0.69;59.06
22031;BME280;11179;52.106;21.024;2024-03-07T04:27:41;101483.09;;;0.57;59.38
22031;BME280;11179;52.106;21.024;2024-03-07T04:30:07;101484.72;;;0.42;59.58
22031;BME280;11179;52.106;21.024;2024-03-07T04:32:35;101491.47;;;0.30;60.27
22031;BME280;11179;52.106;21.024;2024-03-07T04:35:01;101484.50;;;0.19;60.52
22031;BME280;11179;52.106;21.024;2024-03-07T04:37:29;101486.66;;;0.07;60.51
22031;BME280;11179;52.106;21.024;2024-03-07T04:39:54;101484.75;;;-0.00;60.76
22031;BME280;11179;52.106;21.024;2024-03-07T04:42:20;101482.25;;;-0.02;61.04
22031;BME280;11179;52.106;21.024;2024-03-07T04:44:45;101490.81;;;-0.06;60.75
22031;BME280;11179;52.106;21.024;2024-03-07T04:47:10;101491.78;;;-0.15;61.24
22031;BME280;11179;52.106;21.024;2024-03-07T04:49:36;101493.59;;;-0.24;61.45
22031;BME280;11179;52.106;21.024;2024-03-07T04:52:03;101491.69;;;-0.32;61.65
22031;BME280;11179;52.106;21.024;2024-03-07T04:54:29;101497.72;;;-0.38;61.76
22031;BME280;11179;52.106;21.024;2024-03-07T04:56:56;101498.72;;;-0.39;61.63
22031;BME280;11179;52.106;21.024;2024-03-07T04:59:22;101501.53;;;-0.48;61.83
22031;BME280;11179;52.106;21.024;2024-03-07T05:01:49;101492.47;;;-0.65;61.88
22031;BME280;11179;52.106;21.024;2024-03-07T05:04:18;101497.53;;;-0.70;62.24
22031;BME280;11179;52.106;21.024;2024-03-07T05:06:44;101509.22;;;-0.79;62.53
22031;BME280;11179;52.106;21.024;2024-03-07T05:09:12;101506.31;;;-0.86;62.60
22031;BME280;11179;52.106;21.024;2024-03-07T05:11:48;101505.31;;;-0.85;62.59
22031;BME280;11179;52.106;21.024;2024-03-07T05:14:14;101511.34;;;-0.91;62.71
22031;BME280;11179;52.106;21.024;2024-03-07T05:16:41;101516.56;;;-0.89;62.91
22031;BME280;11179;52.106;21.024;2024-03-07T05:19:08;101517.91;;;-0.94;63.14
22031;BME280;11179;52.106;21.024;2024-03-07T05:21:33;101513.72;;;-1.06;63.15
22031;BME280;11179;52.106;21.024;2024-03-07T05:24:02;101514.72;;;-1.07;63.35
22031;BME280;11179;52.106;21.024;2024-03-07T05:26:28;101511.88;;;-1.05;63.41
22031;BME280;11179;52.106;21.024;2024-03-07T05:29:02;101520.22;;;-0.99;63.40
22031;BME280;11179;52.106;21.024;2024-03-07T05:31:31;101520.22;;;-0.99;63.44
22031;BME280;11179;52.106;21.024;2024-03-07T05:33:59;101513.72;;;-1.06;63.45
22031;BME280;11179;52.106;21.024;2024-03-07T05:36:25;101522.06;;;-0.99;63.72
22031;BME280;11179;52.106;21.024;2024-03-07T05:38:51;101518.81;;;-0.85;63.71
22031;BME280;11179;52.106;21.024;2024-03-07T05:41:17;101510.47;;;-0.92;63.72
22031;BME280;11179;52.106;21.024;2024-03-07T05:43:42;101519.66;;;-0.84;64.04
22031;BME280;11179;52.106;21.024;2024-03-07T05:46:09;101514.81;;;-0.81;64.12
22031;BME280;11179;52.106;21.024;2024-03-07T05:48:36;101520.88;;;-0.79;63.99
22031;BME280;11179;52.106;21.024;2024-03-07T05:51:02;101520.94;;;-0.71;63.91
22031;BME280;11179;52.106;21.024;2024-03-07T05:53:28;101522.16;;;-0.65;63.85
22031;BME280;11179;52.106;21.024;2024-03-07T05:55:53;101515.75;;;-0.64;63.76
22031;BME280;11179;52.106;21.024;2024-03-07T05:58:19;101520.69;;;-0.60;63.67
22031;BME280;11179;52.106;21.024;2024-03-07T06:00:47;101523.94;;;-0.56;63.80
22031;BME280;11179;52.106;21.024;2024-03-07T06:03:18;101527.47;;;-0.55;63.87
22031;BME280;11179;52.106;21.024;2024-03-07T06:05:47;101523.66;;;-0.45;63.95
22031;BME280;11179;52.106;21.024;2024-03-07T06:08:14;101530.44;;;-0.41;63.58
22031;BME280;11179;52.106;21.024;2024-03-07T06:10:43;101531.09;;;-0.39;63.86
22031;BME280;11179;52.106;21.024;2024-03-07T06:13:08;101519.13;;;-0.44;64.13
22031;BME280;11179;52.106;21.024;2024-03-07T06:15:34;101529.16;;;-0.29;64.22
22031;BME280;11179;52.106;21.024;2024-03-07T06:18:00;101528.16;;;0.06;64.01
22031;BME280;11179;52.106;21.024;2024-03-07T06:20:25;101529.09;;;0.23;63.64
22031;BME280;11179;52.106;21.024;2024-03-07T06:22:51;101535.13;;;0.51;63.31
22031;BME280;11179;52.106;21.024;2024-03-07T06:25:20;101526.69;;;0.62;62.59
22031;BME280;11179;52.106;21.024;2024-03-07T06:27:58;101533.16;;;0.77;62.61
22031;BME280;11179;52.106;21.024;2024-03-07T06:30:24;101522.66;;;0.74;62.17
22031;BME280;11179;52.106;21.024;2024-03-07T06:32:51;101534.03;;;1.02;62.41
22031;BME280;11179;52.106;21.024;2024-03-07T06:35:16;101526.25;;;1.32;61.67
22031;BME280;11179;52.106;21.024;2024-03-07T06:37:44;101529.94;;;1.47;61.11
22031;BME280;11179;52.106;21.024;2024-03-07T06:40:10;101530.28;;;1.68;60.94
22031;BME280;11179;52.106;21.024;2024-03-07T06:42:35;101525.47;;;1.94;60.53
22031;BME280;11179;52.106;21.024;2024-03-07T06:45:04;101530.59;;;2.28;60.13
22031;BME280;11179;52.106;21.024;2024-03-07T06:47:31;101527.38;;;2.33;59.48
22031;BME280;11179;52.106;21.024;2024-03-07T06:49:56;101523.69;;;2.57;59.22
22031;BME280;11179;52.106;21.024;2024-03-07T06:52:22;101526.81;;;2.99;59.35
22031;BME280;11179;52.106;21.024;2024-03-07T06:54:47;101526.69;;;3.16;57.55
22031;BME280;11179;52.106;21.024;2024-03-07T06:57:13;101522.63;;;3.34;57.03
22031;BME280;11179;52.106;21.024;2024-03-07T06:59:38;101522.69;;;3.64;56.08
22031;BME280;11179;52.106;21.024;2024-03-07T07:02:04;101518.88;;;3.88;56.05
22031;BME280;11179;52.106;21.024;2024-03-07T07:04:29;101522.84;;;4.29;56.13
22031;BME280;11179;52.106;21.024;2024-03-07T07:07:07;101527.09;;;4.68;55.57
22031;BME280;11179;52.106;21.024;2024-03-07T07:09:33;101529.34;;;4.79;55.26
22031;BME280;11179;52.106;21.024;2024-03-07T07:12:00;101531.97;;;4.72;54.22
22031;BME280;11179;52.106;21.024;2024-03-07T07:14:27;101533.50;;;4.60;54.67
22031;BME280;11179;52.106;21.024;2024-03-07T07:16:53;101526.28;;;4.53;53.99
22031;BME280;11179;52.106;21.024;2024-03-07T07:19:19;101520.31;;;4.28;52.60
22031;BME280;11179;52.106;21.024;2024-03-07T07:21:44;101528.88;;;4.10;51.82
22031;BME280;11179;52.106;21.024;2024-03-07T07:24:09;101535.03;;;4.19;52.42
22031;BME280;11179;52.106;21.024;2024-03-07T07:26:36;101534.50;;;4.23;52.33
22031;BME280;11179;52.106;21.024;2024-03-07T07:29:01;101539.81;;;4.17;51.78
22031;BME280;11179;52.106;21.024;2024-03-07T07:31:29;101531.84;;;4.30;51.15
22031;BME280;11179;52.106;21.024;2024-03-07T07:33:54;101529.03;;;4.38;50.50
22031;BME280;11179;52.106;21.024;2024-03-07T07:36:20;101532.44;;;4.25;50.24
22031;BME280;11179;52.106;21.024;2024-03-07T07:38:46;101536.53;;;4.06;50.38
22031;BME280;11179;52.106;21.024;2024-03-07T07:41:12;101537.09;;;4.31;50.99
22031;BME280;11179;52.106;21.024;2024-03-07T07:43:39;101551.91;;;4.29;50.29
22031;BME280;11179;52.106;21.024;2024-03-07T07:46:05;101544.69;;;4.36;50.02
22031;BME280;11179;52.106;21.024;2024-03-07T07:48:31;101550.41;;;4.26;49.13
22031;BME280;11179;52.106;21.024;2024-03-07T07:50:56;101533.16;;;4.19;48.95
22031;BME280;11179;52.106;21.024;2024-03-07T07:53:21;101538.09;;;4.45;49.29
22031;BME280;11179;52.106;21.024;2024-03-07T07:55:47;101535.53;;;4.94;49.38
22031;BME280;11179;52.106;21.024;2024-03-07T07:58:14;101539.06;;;5.09;48.21
22031;BME280;11179;52.106;21.024;2024-03-07T08:00:39;101542.56;;;5.03;48.14
22031;BME280;11179;52.106;21.024;2024-03-07T08:03:05;101534.66;;;5.08;47.82
22031;BME280;11179;52.106;21.024;2024-03-07T08:05:36;101538.72;;;5.19;47.29
22031;BME280;11179;52.106;21.024;2024-03-07T08:08:06;101536.94;;;5.26;48.04
22031;BME280;11179;52.106;21.024;2024-03-07T08:10:34;101541.78;;;5.52;47.30
22031;BME280;11179;52.106;21.024;2024-03-07T08:13:01;101539.25;;;5.50;47.54
22031;BME280;11179;52.106;21.024;2024-03-07T08:15:29;101533.25;;;5.62;46.57
22031;BME280;11179;52.106;21.024;2024-03-07T08:17:55;101544.19;;;5.40;46.34
22031;BME280;11179;52.106;21.024;2024-03-07T08:20:21;101544.06;;;5.27;46.32
22031;BME280;11179;52.106;21.024;2024-03-07T08:22:48;101539.06;;;5.31;46.56
22031;BME280;11179;52.106;21.024;2024-03-07T08:25:17;101553.06;;;5.77;46.56
22031;BME280;11179;52.106;21.024;2024-03-07T08:27:45;101534.91;;;5.84;46.39
22031;BME280;11179;52.106;21.024;2024-03-07T08:30:14;101535.09;;;5.82;46.36
22031;BME280;11179;52.106;21.024;2024-03-07T08:32:58;101547.41;;;5.72;45.24
22031;BME280;11179;52.106;21.024;2024-03-07T08:35:27;101548.13;;;5.87;46.38
22031;BME280;11179;52.106;21.024;2024-03-07T08:37:54;101539.50;;;6.11;44.92
22031;BME280;11179;52.106;21.024;2024-03-07T08:40:22;101535.69;;;5.78;44.46
22031;BME280;11179;52.106;21.024;2024-03-07T08:42:50;101534.94;;;5.63;45.06
22031;BME280;11179;52.106;21.024;2024-03-07T08:45:26;101535.31;;;5.87;44.49
22031;BME280;11179;52.106;21.024;2024-03-07T08:47:53;101533.16;;;5.76;44.98
22031;BME280;11179;52.106;21.024;2024-03-07T08:50:22;101528.91;;;5.95;45.49
22031;BME280;11179;52.106;21.024;2024-03-07T08:52:48;101528.50;;;5.98;44.54
22031;BME280;11179;52.106;21.024;2024-03-07T08:55:16;101533.72;;;6.00;44.39
22031;BME280;11179;52.106;21.024;2024-03-07T08:57:43;101531.94;;;6.13;44.28
22031;BME280;11179;52.106;21.024;2024-03-07T09:00:14;101526.34;;;6.28;44.32
22031;BME280;11179;52.106;21.024;2024-03-07T09:02:48;101530.66;;;6.09;43.36
22031;BME280;11179;52.106;21.024;2024-03-07T09:05:15;101528.66;;;5.90;43.96
22031;BME280;11179;52.106;21.024;2024-03-07T09:07:41;101523.50;;;5.74;42.74
22031;BME280;11179;52.106;21.024;2024-03-07T09:10:07;101523.75;;;5.79;43.18
22031;BME280;11179;52.106;21.024;2024-03-07T09:12:32;101527.38;;;5.58;42.26
22031;BME280;11179;52.106;21.024;2024-03-07T09:14:58;101521.09;;;5.36;43.22
22031;BME280;11179;52.106;21.024;2024-03-07T09:17:23;101526.41;;;5.72;43.37
22031;BME280;11179;52.106;21.024;2024-03-07T09:19:48;101524.41;;;5.81;42.32
22031;BME280;11179;52.106;21.024;2024-03-07T09:22:15;101522.66;;;5.73;42.36
22031;BME280;11179;52.106;21.024;2024-03-07T09:24:40;101520.03;;;5.59;42.24
22031;BME280;11179;52.106;21.024;2024-03-07T09:27:05;101513.78;;;5.65;42.31
22031;BME280;11179;52.106;21.024;2024-03-07T09:29:31;101514.69;;;5.72;42.14
22031;BME280;11179;52.106;21.024;2024-03-07T09:31:56;101524.44;;;5.87;42.14
22031;BME280;11179;52.106;21.024;2024-03-07T09:34:23;101520.63;;;5.82;41.50
22031;BME280;11179;52.106;21.024;2024-03-07T09:36:49;101532.56;;;5.81;41.95
22031;BME280;11179;52.106;21.024;2024-03-07T09:39:15;101516.72;;;5.63;41.03
22031;BME280;11179;52.106;21.024;2024-03-07T09:41:41;101511.25;;;5.35;41.18
22031;BME280;11179;52.106;21.024;2024-03-07T09:44:09;101515.38;;;5.53;41.74
22031;BME280;11179;52.106;21.024;2024-03-07T09:46:37;101516.25;;;5.60;40.87
22031;BME280;11179;52.106;21.024;2024-03-07T09:49:04;101519.63;;;5.62;40.75
22031;BME280;11179;52.106;21.024;2024-03-07T09:51:31;101524.66;;;5.58;40.58
22031;BME280;11179;52.106;21.024;2024-03-07T09:53:58;101519.63;;;5.62;40.55
22031;BME280;11179;52.106;21.024;2024-03-07T09:56:25;101516.31;;;5.66;40.55
22031;BME280;11179;52.106;21.024;2024-03-07T09:58:52;101523.16;;;5.56;40.40
22031;BME280;11179;52.106;21.024;2024-03-07T10:01:20;101534.72;;;5.58;40.98
22031;BME280;11179;52.106;21.024;2024-03-07T10:03:47;101517.91;;;5.54;40.75
22031;BME280;11179;52.106;21.024;2024-03-07T10:06:13;101517.41;;;5.44;40.65
22031;BME280;11179;52.106;21.024;2024-03-07T10:08:42;101532.75;;;5.51;40.07
22031;BME280;11179;52.106;21.024;2024-03-07T10:11:07;101508.41;;;5.22;40.27
22031;BME280;11179;52.106;21.024;2024-03-07T10:13:36;101516.19;;;5.04;40.28
22031;BME280;11179;52.106;21.024;2024-03-07T10:16:02;101517.09;;;5.11;40.98
22031;BME280;11179;52.106;21.024;2024-03-07T10:18:27;101513.19;;;5.41;40.87
22031;BME280;11179;52.106;21.024;2024-03-07T10:20:56;101514.22;;;5.40;40.11
22031;BME280;11179;52.106;21.024;2024-03-07T10:23:22;101510.81;;;5.32;40.05
22031;BME280;11179;52.106;21.024;2024-03-07T10:25:48;101503.78;;;5.23;39.91
22031;BME280;11179;52.106;21.024;2024-03-07T10:28:16;101513.66;;;5.24;40.06
22031;BME280;11179;52.106;21.024;2024-03-07T10:30:42;101507.25;;;5.31;40.28
22031;BME280;11179;52.106;21.024;2024-03-07T10:33:12;101507.97;;;5.46;39.79
22031;BME280;11179;52.106;21.024;2024-03-07T10:35:38;101515.75;;;5.71;40.17
22031;BME280;11179;52.106;21.024;2024-03-07T10:38:03;101507.19;;;5.80;39.92
22031;BME280;11179;52.106;21.024;2024-03-07T10:40:32;101507.78;;;5.48;39.19
22031;BME280;11179;52.106;21.024;2024-03-07T10:42:58;101513.69;;;5.51;39.88
22031;BME280;11179;52.106;21.024;2024-03-07T10:45:28;101517.91;;;5.54;39.71
22031;BME280;11179;52.106;21.024;2024-03-07T10:47:57;101506.56;;;5.50;39.87
22031;BME280;11179;52.106;21.024;2024-03-07T10:56:19;101496.41;;;5.66;39.66
22031;BME280;11179;52.106;21.024;2024-03-07T11:01:44;101487.66;;;5.21;39.35
22031;BME280;11179;52.106;21.024;2024-03-07T11:04:10;101497.44;;;5.37;40.07
22031;BME280;11179;52.106;21.024;2024-03-07T11:06:40;101503.69;;;5.59;40.04
22031;BME280;11179;52.106;21.024;2024-03-07T11:09:06;101516.88;;;5.55;39.59
22031;BME280;11179;52.106;21.024;2024-03-07T11:11:38;101505.97;;;5.34;39.90
22031;BME280;11179;52.106;21.024;2024-03-07T11:14:06;101508.31;;;5.37;39.83
22031;BME280;11179;52.106;21.024;2024-03-07T11:16:33;101512.41;;;5.26;39.38
22031;BME280;11179;52.106;21.024;2024-03-07T11:21:44;101509.44;;;5.42;39.98
22031;BME280;11179;52.106;21.024;2024-03-07T11:24:09;101494.06;;;5.35;40.14
22031;BME280;11179;52.106;21.024;2024-03-07T11:26:35;101492.16;;;5.35;39.97
22031;BME280;11179;52.106;21.024;2024-03-07T11:29:00;101504.09;;;5.34;40.22
22031;BME280;11179;52.106;21.024;2024-03-07T11:31:26;101496.97;;;5.33;40.20
22031;BME280;11179;52.106;21.024;2024-03-07T11:34:15;101486.19;;;5.19;40.14
22031;BME280;11179;52.106;21.024;2024-03-07T11:36:48;101481.69;;;5.32;40.25
22031;BME280;11179;52.106;21.024;2024-03-07T11:42:07;101481.53;;;5.68;40.59
22031;BME280;11179;52.106;21.024;2024-03-07T11:44:33;101474.78;;;5.64;40.01
22031;BME280;11179;52.106;21.024;2024-03-07T11:47:05;101478.63;;;5.70;39.50
22031;BME280;11179;52.106;21.024;2024-03-07T11:49:36;101476.38;;;5.80;39.85
22031;BME280;11179;52.106;21.024;2024-03-07T11:52:03;101468.97;;;5.67;38.88
22031;BME280;11179;52.106;21.024;2024-03-07T11:54:30;101467.63;;;5.57;39.38
22031;BME280;11179;52.106;21.024;2024-03-07T11:56:56;101464.28;;;5.61;39.76
22031;BME280;11179;52.106;21.024;2024-03-07T11:59:22;101467.53;;;5.71;39.69
22031;BME280;11179;52.106;21.024;2024-03-07T12:01:51;101474.00;;;5.70;40.03
22031;BME280;11179;52.106;21.024;2024-03-07T12:04:16;101465.56;;;5.59;40.02
22031;BME280;11179;52.106;21.024;2024-03-07T12:06:51;101456.47;;;5.51;39.42
22031;BME280;11179;52.106;21.024;2024-03-07T12:09:16;101464.28;;;5.61;39.64
22031;BME280;11179;52.106;21.024;2024-03-07T12:11:49;101464.94;;;5.63;39.96
22031;BME280;11179;52.106;21.024;2024-03-07T12:14:18;101451.66;;;5.81;40.17
22031;BME280;11179;52.106;21.024;2024-03-07T12:16:44;101446.22;;;5.88;40.02
22031;BME280;11179;52.106;21.024;2024-03-07T12:19:09;101454.78;;;5.78;39.29
22031;BME280;11179;52.106;21.024;2024-03-07T12:21:36;101452.59;;;5.67;39.27
22031;BME280;11179;52.106;21.024;2024-03-07T12:24:11;101453.59;;;5.60;39.46
22031;BME280;11179;52.106;21.024;2024-03-07T12:26:37;101447.72;;;5.56;39.87
22031;BME280;11179;52.106;21.024;2024-03-07T12:29:10;101452.16;;;5.64;39.75
22031;BME280;11179;52.106;21.024;2024-03-07T12:31:40;101453.94;;;5.78;39.94
22031;BME280;11179;52.106;21.024;2024-03-07T12:34:06;101450.44;;;5.91;39.96
22031;BME280;11179;52.106;21.024;2024-03-07T12:36:34;101445.63;;;5.93;39.71
22031;BME280;11179;52.106;21.024;2024-03-07T12:39:01;101446.66;;;5.85;39.88
22031;BME280;11179;52.106;21.024;2024-03-07T12:41:35;101452.75;;;5.94;40.07
22031;BME280;11179;52.106;21.024;2024-03-07T12:44:00;101432.00;;;5.93;40.05
22031;BME280;11179;52.106;21.024;2024-03-07T12:46:25;101449.66;;;6.03;39.92
22031;BME280;11179;52.106;21.024;2024-03-07T12:48:52;101429.47;;;5.91;39.65
22031;BME280;11179;52.106;21.024;2024-03-07T12:51:22;101433.28;;;5.97;39.93
22031;BME280;11179;52.106;21.024;2024-03-07T12:53:50;101438.50;;;5.92;39.80
22031;BME280;11179;52.106;21.024;2024-03-07T12:56:15;101445.50;;;5.73;39.37
22031;BME280;11179;52.106;21.024;2024-03-07T12:58:44;101445.88;;;5.63;39.07
22031;BME280;11179;52.106;21.024;2024-03-07T13:01:10;101436.63;;;5.58;39.17